Fairoaks, Pennsylvania
Current Conditions -  °F | °C
As of 7:51 AM on Saturday 25 Oct 2014 (Local Time) from KPIT Reporting Station
Broken Clouds Broken Clouds  
Wind Chill: 46°   Ceiling: 25000
Heat Index: 48°   Visibility: 10mi
Dew Point: 39°   Wind: 5mph
Humidity: 71%   Direction: 240°WSW
Pressure: 29.96"   Gusts: NA
Location:  40.6018°N, 80.2094°W
Report Text: KPIT 251151Z 24004KT 10SM SCT041 BKN250 09/04 A2996 RMK AO2 SLP154 T00890039 10100 20067 58001
Loading
Personal Weather Stations






























Interactive Weather Map
Tropical Storm Tracking
New forecast layout! Learn more

10-Day Weather Forecast

Advertisements
Track Severe Weather on mobile